createdAt,value
2017-11-25T00:00:32.205Z,98490
2017-11-25T00:03:00.448Z,98484
2017-11-25T00:05:29.292Z,98477
2017-11-25T00:07:57.392Z,98483
2017-11-25T00:10:25.472Z,98480
2017-11-25T00:12:54.334Z,98465
2017-11-25T00:15:22.428Z,98477
2017-11-25T00:17:50.532Z,98470
2017-11-25T00:20:18.617Z,98461
2017-11-25T00:22:46.722Z,98467
2017-11-25T00:25:14.822Z,98466
2017-11-25T00:27:42.905Z,98458
2017-11-25T00:30:11.757Z,98454
2017-11-25T00:33:05.590Z,98449
2017-11-25T00:35:33.686Z,98448
2017-11-25T00:38:01.765Z,98440
2017-11-25T00:40:29.860Z,98441
2017-11-25T00:42:57.946Z,98430
2017-11-25T00:45:26.046Z,98438
2017-11-25T00:47:54.884Z,98430
2017-11-25T00:50:23.065Z,98435
2017-11-25T00:52:51.206Z,98441
2017-11-25T00:55:19.336Z,98429
2017-11-25T00:57:48.199Z,98433
2017-11-25T01:00:16.297Z,98437
2017-11-25T01:02:44.387Z,98434
2017-11-25T01:05:13.232Z,98425
2017-11-25T01:07:41.333Z,98414
2017-11-25T01:10:10.192Z,98419
2017-11-25T01:12:38.291Z,98414
2017-11-25T01:15:06.366Z,98409
2017-11-25T01:17:34.449Z,98404
2017-11-25T01:20:03.301Z,98406
2017-11-25T01:22:31.379Z,98403
2017-11-25T01:24:59.446Z,98411
2017-11-25T01:27:27.546Z,98401
2017-11-25T01:29:55.639Z,98398
2017-11-25T01:32:24.538Z,98402
2017-11-25T01:34:52.628Z,98392
2017-11-25T01:37:21.527Z,98398
2017-11-25T01:39:49.600Z,98380
2017-11-25T01:42:17.678Z,98379
2017-11-25T01:44:45.749Z,98366
2017-11-25T01:47:13.862Z,98370
2017-11-25T01:49:41.962Z,98359
2017-11-25T01:52:10.800Z,98368
2017-11-25T01:54:38.869Z,98372
2017-11-25T01:57:06.949Z,98357
2017-11-25T01:59:35.037Z,98341
2017-11-25T02:02:03.122Z,98330
2017-11-25T02:04:31.982Z,98322
2017-11-25T02:07:00.080Z,98329
2017-11-25T02:09:28.930Z,98331
2017-11-25T02:11:57.008Z,98330
2017-11-25T02:14:25.121Z,98315
2017-11-25T02:16:54.093Z,98328
2017-11-25T02:19:22.180Z,98318
2017-11-25T02:21:51.046Z,98298
2017-11-25T02:24:19.121Z,98295
2017-11-25T02:26:47.221Z,98295
2017-11-25T02:29:16.081Z,98298
2017-11-25T02:31:44.175Z,98289
2017-11-25T02:34:12.265Z,98272
2017-11-25T02:36:41.121Z,98268
2017-11-25T02:39:09.217Z,98266
2017-11-25T02:41:37.289Z,98257
2017-11-25T02:44:05.373Z,98244
2017-11-25T02:46:34.245Z,98246
2017-11-25T02:49:02.352Z,98259
2017-11-25T02:51:30.425Z,98263
2017-11-25T02:53:58.523Z,98248
2017-11-25T02:56:26.629Z,98234
2017-11-25T02:58:54.711Z,98231
2017-11-25T03:01:22.789Z,98226
2017-11-25T03:03:51.649Z,98229
2017-11-25T03:06:19.735Z,98232
2017-11-25T03:08:47.825Z,98221
2017-11-25T03:11:16.673Z,98223
2017-11-25T03:13:44.773Z,98228
2017-11-25T03:16:12.853Z,98238
2017-11-25T03:18:40.941Z,98220
2017-11-25T03:21:09.839Z,98211
2017-11-25T03:23:38.194Z,98207
2017-11-25T03:26:06.269Z,98200
2017-11-25T03:28:35.142Z,98200
2017-11-25T03:31:03.210Z,98200
2017-11-25T03:33:31.292Z,98185
2017-11-25T03:35:59.374Z,98179
2017-11-25T03:38:27.457Z,98175
2017-11-25T03:40:56.313Z,98176
2017-11-25T03:43:24.410Z,98168
2017-11-25T03:45:52.485Z,98170
2017-11-25T03:48:20.565Z,98162
2017-11-25T03:50:50.896Z,98158
2017-11-25T03:53:19.766Z,98156
2017-11-25T03:55:47.849Z,98155
2017-11-25T03:58:16.728Z,98164
2017-11-25T04:00:45.594Z,98156
2017-11-25T04:03:13.670Z,98155
2017-11-25T04:05:41.769Z,98153
2017-11-25T04:08:09.933Z,98139
2017-11-25T04:10:38.017Z,98131
2017-11-25T04:13:06.110Z,98144
2017-11-25T04:15:34.981Z,98137
2017-11-25T04:18:03.052Z,98128
2017-11-25T04:20:32.305Z,98129
2017-11-25T04:23:01.149Z,98128
2017-11-25T04:25:29.998Z,98138
2017-11-25T04:27:58.110Z,98112
2017-11-25T04:30:26.248Z,98111
2017-11-25T04:32:54.341Z,98104
2017-11-25T04:35:22.467Z,98104
2017-11-25T04:37:50.552Z,98097
2017-11-25T04:40:19.431Z,98096
2017-11-25T04:42:47.535Z,98087
2017-11-25T04:45:15.607Z,98091
2017-11-25T04:47:43.711Z,98072
2017-11-25T04:50:12.578Z,98073
2017-11-25T04:52:40.713Z,98078
2017-11-25T04:55:08.801Z,98083
2017-11-25T04:57:36.923Z,98082
2017-11-25T05:00:05.785Z,98086
2017-11-25T05:02:33.885Z,98078
2017-11-25T05:05:02.761Z,98081
2017-11-25T05:07:30.876Z,98074
2017-11-25T05:09:58.963Z,98086
2017-11-25T05:12:27.043Z,98077
2017-11-25T05:14:55.910Z,98080
2017-11-25T05:17:24.018Z,98071
2017-11-25T05:19:52.127Z,98069
2017-11-25T05:22:20.204Z,98073
2017-11-25T05:24:49.079Z,98081
2017-11-25T05:27:17.173Z,98076
2017-11-25T05:29:46.037Z,98076
2017-11-25T05:32:14.132Z,98062
2017-11-25T05:34:42.989Z,98065
2017-11-25T05:37:11.098Z,98064
2017-11-25T05:39:39.963Z,98064
2017-11-25T05:42:08.049Z,98065
2017-11-25T05:44:36.152Z,98064
2017-11-25T05:47:04.242Z,98061
2017-11-25T05:49:33.081Z,98055
2017-11-25T05:52:01.162Z,98054
2017-11-25T05:54:29.239Z,98054
2017-11-25T05:56:58.102Z,98049
2017-11-25T05:59:26.204Z,98048
2017-11-25T06:01:55.070Z,98048
2017-11-25T06:04:23.145Z,98039
2017-11-25T06:06:51.237Z,98034
2017-11-25T06:09:20.111Z,98028
2017-11-25T06:11:48.206Z,98033
2017-11-25T06:14:17.063Z,98023
2017-11-25T06:16:45.176Z,98010
2017-11-25T06:19:13.263Z,98012
2017-11-25T06:21:41.363Z,98010
2017-11-25T06:24:09.450Z,98010
2017-11-25T06:26:37.561Z,98000
2017-11-25T06:29:06.448Z,98006
2017-11-25T06:31:34.674Z,97989
2017-11-25T06:34:02.756Z,97989
2017-11-25T06:36:30.839Z,97993
2017-11-25T06:38:58.937Z,97998
2017-11-25T06:41:27.811Z,98000
2017-11-25T06:43:55.889Z,97998
2017-11-25T06:46:23.971Z,97999
2017-11-25T06:48:52.818Z,97988
2017-11-25T06:51:20.902Z,97996
2017-11-25T06:53:48.980Z,97988
2017-11-25T06:56:17.086Z,97990
2017-11-25T06:58:46.150Z,97994
2017-11-25T07:01:14.241Z,97988
2017-11-25T07:03:43.110Z,97994
2017-11-25T07:06:11.205Z,97997
2017-11-25T07:08:39.290Z,97989
2017-11-25T07:11:07.379Z,97991
2017-11-25T07:13:35.476Z,97998
2017-11-25T07:16:03.554Z,97996
2017-11-25T07:18:31.653Z,98003
2017-11-25T07:20:59.743Z,97998
2017-11-25T07:23:28.609Z,98005
2017-11-25T07:25:56.681Z,97993
2017-11-25T07:28:24.780Z,98002
2017-11-25T07:30:52.846Z,98009
2017-11-25T07:33:20.925Z,98015
2017-11-25T07:35:49.818Z,98013
2017-11-25T07:38:18.657Z,98015
2017-11-25T07:40:46.762Z,98015
2017-11-25T07:43:14.846Z,98017
2017-11-25T07:45:42.929Z,98007
2017-11-25T07:48:11.769Z,98005
2017-11-25T07:50:39.905Z,98001
2017-11-25T07:53:08.746Z,98007
2017-11-25T07:55:36.838Z,98001
2017-11-25T07:58:04.914Z,98012
2017-11-25T08:00:33.002Z,98007
2017-11-25T08:03:01.855Z,98009
2017-11-25T08:05:30.181Z,98014
2017-11-25T08:07:58.252Z,98011
2017-11-25T08:10:27.109Z,98006
2017-11-25T08:12:55.178Z,98010
2017-11-25T08:15:23.281Z,98021
2017-11-25T08:17:52.143Z,98033
2017-11-25T08:20:20.225Z,98027
2017-11-25T08:22:49.093Z,98028
2017-11-25T08:25:17.160Z,98029
2017-11-25T08:27:46.199Z,98039
2017-11-25T08:30:15.049Z,98047
2017-11-25T08:32:43.133Z,98048
2017-11-25T08:35:11.203Z,98044
2017-11-25T08:37:39.290Z,98045
2017-11-25T08:40:07.361Z,98054
2017-11-25T08:42:35.496Z,98055
2017-11-25T08:45:03.572Z,98058
2017-11-25T08:47:31.650Z,98064
2017-11-25T08:49:59.721Z,98084
2017-11-25T08:52:27.839Z,98094
2017-11-25T08:54:56.685Z,98087
2017-11-25T08:57:24.764Z,98100
2017-11-25T08:59:52.838Z,98104
2017-11-25T09:02:20.942Z,98103
2017-11-25T09:04:49.813Z,98099
2017-11-25T09:07:17.907Z,98097
2017-11-25T09:09:46.805Z,98105
2017-11-25T09:12:15.636Z,98098
2017-11-25T09:14:46.034Z,98104
2017-11-25T09:17:14.122Z,98113
2017-11-25T09:19:42.220Z,98113
2017-11-25T09:22:10.310Z,98101
2017-11-25T09:24:38.405Z,98115
2017-11-25T09:27:07.297Z,98115
2017-11-25T09:29:36.205Z,98109
2017-11-25T09:32:04.313Z,98125
2017-11-25T09:34:32.378Z,98115
2017-11-25T09:37:00.525Z,98125
2017-11-25T09:39:28.609Z,98128
2017-11-25T09:41:56.699Z,98126
2017-11-25T09:44:24.888Z,98128
2017-11-25T09:46:53.000Z,98137
2017-11-25T09:49:21.099Z,98129
2017-11-25T09:51:49.179Z,98137
2017-11-25T09:54:17.264Z,98130
2017-11-25T09:56:45.357Z,98140
2017-11-25T09:59:13.477Z,98139
2017-11-25T10:01:41.558Z,98139
2017-11-25T10:04:09.829Z,98135
2017-11-25T10:06:38.652Z,98134
2017-11-25T10:09:06.761Z,98147
2017-11-25T10:11:35.612Z,98135
2017-11-25T10:14:03.698Z,98131
2017-11-25T10:16:31.790Z,98131
2017-11-25T10:18:59.880Z,98129
2017-11-25T10:21:28.022Z,98133
2017-11-25T10:23:56.130Z,98141
2017-11-25T10:26:24.999Z,98146
2017-11-25T10:28:53.072Z,98147
2017-11-25T10:31:21.138Z,98156
2017-11-25T10:33:49.210Z,98155
2017-11-25T10:36:17.314Z,98160
2017-11-25T10:38:46.143Z,98151
2017-11-25T10:41:14.218Z,98162
2017-11-25T10:43:42.309Z,98169
2017-11-25T10:46:10.378Z,98156
2017-11-25T10:48:38.467Z,98156
2017-11-25T10:51:06.545Z,98165
2017-11-25T10:53:35.426Z,98177
2017-11-25T10:56:03.509Z,98157
2017-11-25T10:58:31.589Z,98161
2017-11-25T11:01:00.468Z,98172
2017-11-25T11:03:28.549Z,98170
2017-11-25T11:05:56.629Z,98167
2017-11-25T11:08:25.491Z,98167
2017-11-25T11:10:53.565Z,98179
2017-11-25T11:13:21.686Z,98181
2017-11-25T11:15:49.761Z,98180
2017-11-25T11:18:17.846Z,98183
2017-11-25T11:20:45.945Z,98187
2017-11-25T11:23:14.247Z,98188
2017-11-25T11:25:42.337Z,98180
2017-11-25T11:28:11.200Z,98189
2017-11-25T11:30:39.319Z,98195
2017-11-25T11:33:07.408Z,98191
2017-11-25T11:35:35.509Z,98197
2017-11-25T11:38:03.570Z,98197
2017-11-25T11:40:31.664Z,98191
2017-11-25T11:42:59.737Z,98180
2017-11-25T11:45:27.821Z,98185
2017-11-25T11:47:56.726Z,98202
2017-11-25T11:50:25.578Z,98195
2017-11-25T11:52:53.689Z,98182
2017-11-25T11:55:22.560Z,98182
2017-11-25T11:57:50.642Z,98189
2017-11-25T12:00:19.483Z,98184
2017-11-25T12:02:47.573Z,98175
2017-11-25T12:05:15.673Z,98172
2017-11-25T12:07:44.574Z,98171
2017-11-25T12:10:13.414Z,98192
2017-11-25T12:12:41.493Z,98188
2017-11-25T12:15:09.605Z,98193
2017-11-25T12:17:38.457Z,98201
2017-11-25T12:20:06.541Z,98205
2017-11-25T12:22:34.625Z,98200
2017-11-25T12:25:02.709Z,98205
2017-11-25T12:27:31.567Z,98215
2017-11-25T12:29:59.637Z,98222
2017-11-25T12:32:27.720Z,98205
2017-11-25T12:34:55.790Z,98192
2017-11-25T12:37:23.877Z,98207
2017-11-25T12:39:51.940Z,98210
2017-11-25T12:42:20.041Z,98209
2017-11-25T12:44:48.876Z,98215
2017-11-25T12:47:16.945Z,98222
2017-11-25T12:49:45.021Z,98226
2017-11-25T12:52:13.097Z,98230
2017-11-25T12:54:41.181Z,98243
2017-11-25T12:57:09.253Z,98256
2017-11-25T12:59:37.341Z,98259
2017-11-25T13:02:05.406Z,98250
2017-11-25T13:04:33.489Z,98254
2017-11-25T13:07:01.558Z,98263
2017-11-25T13:09:29.641Z,98266
2017-11-25T13:11:57.708Z,98253
2017-11-25T13:14:25.804Z,98257
2017-11-25T13:16:54.662Z,98261
2017-11-25T13:19:22.712Z,98275
2017-11-25T13:21:50.790Z,98267
2017-11-25T13:24:18.864Z,98265
2017-11-25T13:26:46.942Z,98282
2017-11-25T13:29:15.005Z,98279
2017-11-25T13:31:43.094Z,98285
2017-11-25T13:34:11.169Z,98278
2017-11-25T13:36:39.258Z,98285
2017-11-25T13:39:08.100Z,98300
2017-11-25T13:41:36.181Z,98289
2017-11-25T13:44:04.298Z,98292
2017-11-25T13:46:33.149Z,98293
2017-11-25T13:49:01.228Z,98298
2017-11-25T13:51:29.344Z,98301
2017-11-25T13:53:58.202Z,98305
2017-11-25T13:56:26.292Z,98295
2017-11-25T13:58:55.138Z,98306
2017-11-25T14:01:23.204Z,98308
2017-11-25T14:03:52.061Z,98306
2017-11-25T14:06:20.885Z,98309
2017-11-25T14:08:48.973Z,98312
2017-11-25T14:11:17.047Z,98309
2017-11-25T14:13:45.762Z,98319
2017-11-25T14:16:13.831Z,98316
2017-11-25T14:18:41.910Z,98312
2017-11-25T14:21:10.747Z,98313
2017-11-25T14:23:38.832Z,98309
2017-11-25T14:26:06.909Z,98324
2017-11-25T14:28:35.013Z,98334
2017-11-25T14:31:03.074Z,98328
2017-11-25T14:33:31.157Z,98330
2017-11-25T14:35:59.232Z,98336
2017-11-25T14:38:28.077Z,98335
2017-11-25T14:40:56.148Z,98342
2017-11-25T14:43:24.237Z,98341
2017-11-25T14:45:52.309Z,98346
2017-11-25T14:48:20.387Z,98345
2017-11-25T14:50:48.469Z,98341
2017-11-25T14:53:16.548Z,98349
2017-11-25T14:55:44.630Z,98356
2017-11-25T14:58:13.473Z,98359
2017-11-25T15:00:41.552Z,98362
2017-11-25T15:03:09.638Z,98365
2017-11-25T15:05:37.717Z,98367
2017-11-25T15:08:05.793Z,98374
2017-11-25T15:10:33.893Z,98374
2017-11-25T15:13:02.753Z,98372
2017-11-25T15:15:31.061Z,98379
2017-11-25T15:17:59.906Z,98378
2017-11-25T15:20:27.972Z,98379
2017-11-25T15:22:56.061Z,98385
2017-11-25T15:25:24.136Z,98380
2017-11-25T15:27:52.213Z,98375
2017-11-25T15:30:20.289Z,98392
2017-11-25T15:32:48.363Z,98399
2017-11-25T15:35:16.431Z,98397
2017-11-25T15:37:44.513Z,98399
2017-11-25T15:40:13.356Z,98409
2017-11-25T15:42:42.214Z,98417
2017-11-25T15:45:10.289Z,98418
2017-11-25T15:47:38.362Z,98421
2017-11-25T15:50:06.438Z,98425
2017-11-25T15:52:34.508Z,98437
2017-11-25T15:55:02.593Z,98444
2017-11-25T15:57:30.675Z,98443
2017-11-25T15:59:58.764Z,98446
2017-11-25T16:02:26.842Z,98443
2017-11-25T16:04:54.930Z,98449
2017-11-25T16:07:23.000Z,98444
2017-11-25T16:09:51.085Z,98450
2017-11-25T16:12:19.157Z,98455
2017-11-25T16:14:47.253Z,98446
2017-11-25T16:17:16.085Z,98451
2017-11-25T16:19:44.152Z,98463
2017-11-25T16:22:12.224Z,98470
2017-11-25T16:24:40.297Z,98475
2017-11-25T16:27:08.384Z,98485
2017-11-25T16:29:36.450Z,98504
2017-11-25T16:32:04.520Z,98502
2017-11-25T16:34:32.592Z,98510
2017-11-25T16:37:00.673Z,98509
2017-11-25T16:39:28.744Z,98516
2017-11-25T16:41:56.816Z,98525
2017-11-25T16:44:24.871Z,98522
2017-11-25T16:46:52.953Z,98523
2017-11-25T16:49:21.041Z,98536
2017-11-25T16:51:49.113Z,98546
2017-11-25T16:54:17.185Z,98549
2017-11-25T16:56:45.257Z,98560
2017-11-25T16:59:13.333Z,98554
2017-11-25T17:01:41.392Z,98576
2017-11-25T17:04:09.463Z,98587
2017-11-25T17:06:37.533Z,98596
2017-11-25T17:09:05.606Z,98609
2017-11-25T17:11:33.676Z,98610
2017-11-25T17:14:02.580Z,98618
2017-11-25T17:16:30.645Z,98622
2017-11-25T17:18:58.715Z,98628
2017-11-25T17:21:26.786Z,98633
2017-11-25T17:23:54.839Z,98632
2017-11-25T17:26:22.909Z,98630
2017-11-25T17:28:50.989Z,98640
2017-11-25T17:31:19.057Z,98650
2017-11-25T17:33:47.210Z,98653
2017-11-25T17:36:15.322Z,98660
2017-11-25T17:38:43.405Z,98666
2017-11-25T17:41:11.502Z,98666
2017-11-25T17:43:40.353Z,98681
2017-11-25T17:46:08.443Z,98686
2017-11-25T17:48:36.512Z,98685
2017-11-25T17:51:04.590Z,98685
2017-11-25T17:53:32.674Z,98689
2017-11-25T17:56:01.581Z,98690
2017-11-25T17:58:30.419Z,98699
2017-11-25T18:00:58.486Z,98698
2017-11-25T18:03:27.317Z,98694
2017-11-25T18:05:55.760Z,98703
2017-11-25T18:08:23.838Z,98696
2017-11-25T18:10:51.937Z,98700
2017-11-25T18:13:20.019Z,98707
2017-11-25T18:15:48.874Z,98714
2017-11-25T18:18:16.961Z,98725
2017-11-25T18:20:45.050Z,98742
2017-11-25T18:23:13.901Z,98742
2017-11-25T18:25:41.963Z,98736
2017-11-25T18:28:10.068Z,98763
2017-11-25T18:30:48.171Z,98759
2017-11-25T18:33:16.263Z,98769
2017-11-25T18:35:44.330Z,98775
2017-11-25T18:38:12.406Z,98774
2017-11-25T18:40:40.487Z,98780
2017-11-25T18:43:09.321Z,98774
2017-11-25T18:45:37.409Z,98779
2017-11-25T18:48:05.500Z,98774
2017-11-25T18:50:33.749Z,98773
2017-11-25T18:53:01.836Z,98787
2017-11-25T18:55:29.911Z,98784
2017-11-25T18:57:58.041Z,98788
2017-11-25T19:00:26.135Z,98801
2017-11-25T19:02:54.201Z,98799
2017-11-25T19:05:22.401Z,98807
2017-11-25T19:07:50.473Z,98811
2017-11-25T19:10:18.567Z,98813
2017-11-25T19:12:46.654Z,98821
2017-11-25T19:15:15.484Z,98826
2017-11-25T19:17:43.569Z,98832
2017-11-25T19:20:11.653Z,98844
2017-11-25T19:22:39.725Z,98847
2017-11-25T19:25:07.793Z,98848
2017-11-25T19:27:35.909Z,98855
2017-11-25T19:30:04.752Z,98855
2017-11-25T19:32:32.862Z,98867
2017-11-25T19:35:00.929Z,98879
2017-11-25T19:37:29.019Z,98874
2017-11-25T19:39:57.865Z,98878
2017-11-25T19:42:25.942Z,98888
2017-11-25T19:44:54.017Z,98893
2017-11-25T19:47:22.076Z,98899
2017-11-25T19:49:50.157Z,98892
2017-11-25T19:52:18.228Z,98901
2017-11-25T19:54:46.305Z,98908
2017-11-25T19:57:14.373Z,98909
2017-11-25T19:59:42.503Z,98917
2017-11-25T20:02:11.370Z,98915
2017-11-25T20:04:39.445Z,98924
2017-11-25T20:07:08.273Z,98916
2017-11-25T20:09:36.372Z,98919
2017-11-25T20:12:04.442Z,98939
2017-11-25T20:14:32.513Z,98931
2017-11-25T20:17:00.595Z,98933
2017-11-25T20:19:28.668Z,98945
2017-11-25T20:21:56.758Z,98948
2017-11-25T20:24:24.821Z,98947
2017-11-25T20:26:52.893Z,98952
2017-11-25T20:29:20.973Z,98947
2017-11-25T20:31:49.086Z,98947
2017-11-25T20:34:17.211Z,98944
2017-11-25T20:36:45.323Z,98950
2017-11-25T20:39:14.158Z,98934
2017-11-25T20:41:42.255Z,98954
2017-11-25T20:44:10.301Z,98955
2017-11-25T20:46:38.373Z,98950
2017-11-25T20:49:06.454Z,98965
2017-11-25T20:51:34.593Z,98968
2017-11-25T20:54:02.664Z,98980
2017-11-25T20:56:30.736Z,98989
2017-11-25T20:58:58.817Z,98985
2017-11-25T21:01:26.881Z,98999
2017-11-25T21:03:54.956Z,99001
2017-11-25T21:06:23.053Z,99002
2017-11-25T21:08:51.183Z,99002
2017-11-25T21:11:20.013Z,99006
2017-11-25T21:13:48.092Z,99013
2017-11-25T21:16:16.162Z,99007
2017-11-25T21:18:44.232Z,99020
2017-11-25T21:21:12.348Z,99019
2017-11-25T21:23:40.457Z,99027
2017-11-25T21:26:08.529Z,99030
2017-11-25T21:28:36.779Z,99019
2017-11-25T21:31:05.759Z,99036
2017-11-25T21:33:35.183Z,99036
2017-11-25T21:36:03.268Z,99043
2017-11-25T21:38:31.378Z,99054
2017-11-25T21:40:59.442Z,99044
2017-11-25T21:43:27.556Z,99051
2017-11-25T21:45:56.397Z,99051
2017-11-25T21:48:24.469Z,99060
2017-11-25T21:50:52.550Z,99055
2017-11-25T21:53:20.620Z,99065
2017-11-25T21:55:48.689Z,99062
2017-11-25T21:58:16.748Z,99059
2017-11-25T22:00:44.820Z,99080
2017-11-25T22:03:12.927Z,99075
2017-11-25T22:05:40.995Z,99076
2017-11-25T22:08:09.062Z,99072
2017-11-25T22:10:37.136Z,99084
2017-11-25T22:13:05.188Z,99081
2017-11-25T22:15:33.286Z,99087
2017-11-25T22:18:01.397Z,99087
2017-11-25T22:20:29.500Z,99077
2017-11-25T22:22:57.573Z,99095
2017-11-25T22:25:25.637Z,99080
2017-11-25T22:27:53.703Z,99080
2017-11-25T22:30:21.760Z,99083
2017-11-25T22:32:49.824Z,99082
2017-11-25T22:35:18.677Z,99100
2017-11-25T22:37:46.750Z,99104
2017-11-25T22:40:14.809Z,99098
2017-11-25T22:42:42.904Z,99118
2017-11-25T22:45:10.983Z,99107
2017-11-25T22:47:39.829Z,99106
2017-11-25T22:50:08.684Z,99098
2017-11-25T22:52:37.520Z,99106
2017-11-25T22:55:05.593Z,99112
2017-11-25T22:57:33.653Z,99118
2017-11-25T23:00:02.644Z,99112
2017-11-25T23:02:30.764Z,99114
2017-11-25T23:04:58.832Z,99116
2017-11-25T23:07:26.893Z,99122
2017-11-25T23:09:54.962Z,99127
2017-11-25T23:12:23.029Z,99126
2017-11-25T23:14:51.119Z,99130
2017-11-25T23:17:19.177Z,99133
2017-11-25T23:19:47.302Z,99132
2017-11-25T23:22:15.361Z,99147
2017-11-25T23:24:44.240Z,99155
2017-11-25T23:27:13.082Z,99136
2017-11-25T23:29:41.148Z,99140
2017-11-25T23:32:09.989Z,99141
2017-11-25T23:34:38.842Z,99139
2017-11-25T23:37:06.920Z,99148
2017-11-25T23:39:34.988Z,99148
2017-11-25T23:42:03.077Z,99152
2017-11-25T23:44:31.158Z,99145
2017-11-25T23:46:59.381Z,99147
2017-11-25T23:49:27.449Z,99142
2017-11-25T23:51:55.726Z,99145
2017-11-25T23:54:23.805Z,99148
2017-11-25T23:56:51.891Z,99165
2017-11-25T23:59:19.953Z,99156
